• Join FlightAware (Why Join?)
  • Login
  • US Flag 
08:55PM EDT


 

Airport Tracker/Info


-or-


 

Live Flight TrackerFlight Track Log ✈ N724CM ✈ 28-Jun-2013 ✈ KMBO - KBHM

Flight Track Log - Related Links

Times and Time Zones

All times are in EDT time to prevent confusion due to time zone crossing. See the N724CM flight status page for this flight to view local times or setup timezone preferences in your user account.

Time Position Orientation Groundspeed Altitude Reporting Facility
EDT Latitude Longitude Course Direction KTS MPH feet Rate Location/Type
03:58PM 32.5458 -89.8767 65° Northeast 170 196 4,600  Level Memphis Center
03:59PM 32.5622 -89.8272 69° East 158 182 5,400 660 Climbing Memphis Center
04:00PM 32.5786 -89.7853 65° Northeast 146 168 6,000 600 Climbing Memphis Center
04:01PM 32.5931 -89.7383 70° East 146 168 6,700 480 Climbing Memphis Center
04:02PM 32.5175 -89.8476 68° East  Level FlightAware Approximate
04:02PM 32.6094 -89.6914 67° East 146 168 7,000  Level Memphis Center
04:03PM 32.5344 -89.7972 65° Northeast  Level FlightAware Approximate
04:03PM 32.6281 -89.6394 67° East 152 175 7,100  Level Memphis Center
04:04PM 32.6464 -89.5800 70° East 170 196 7,100  Level Memphis Center
04:05PM 32.6650 -89.5256 68° East 170 196 7,100  Level Memphis Center
04:06PM 32.6833 -89.4711 68° East 170 196 7,100  Level Memphis Center
04:07PM 32.7017 -89.4167 68° East 170 196 7,100  Level Memphis Center
04:08PM 32.7222 -89.3597 67° East 170 196 7,100  Level Memphis Center
04:09PM 32.7425 -89.3028 67° East 170 196 7,100  Level Memphis Center
04:10PM 32.7589 -89.2506 70° East 176 203 7,100  Level Memphis Center
04:11PM 32.7772 -89.1961 68° East 176 203 7,100  Level Memphis Center
04:12PM 32.7975 -89.1364 68° East 181 208 7,100  Level Memphis Center
04:13PM 32.8178 -89.0792 67° East 181 208 7,100  Level Memphis Center
04:14PM 32.8358 -89.0222 69° East 181 208 7,100  Level Memphis Center
04:15PM 32.8542 -88.9650 69° East 181 208 7,100  Level Memphis Center
04:16PM 32.8742 -88.9103 66° East 181 208 7,100  Level Memphis Center
04:17PM 32.8944 -88.8506 68° East 181 208 7,100  Level Memphis Center
04:18PM 32.9125 -88.7908 70° East 186 214 7,100  Level Memphis Center
04:19PM 32.9306 -88.7336 69° East 186 214 7,100  Level Memphis Center
04:20PM 32.9506 -88.6764 67° East 191 220 7,100  Level Memphis Center
04:21PM 32.9708 -88.6189 67° East 186 214 7,100  Level Memphis Center
04:22PM 32.9908 -88.5542 70° East 188 216 7,100  Level Memphis Center
04:23PM 33.0108 -88.4942 68° East 186 214 7,100  Level Memphis Center
04:24PM 33.0286 -88.4369 70° East 185 213 7,100  Level Memphis Center
04:25PM 33.0486 -88.3769 68° East 190 219 7,100  Level Memphis Center
04:26PM 33.0683 -88.3122 70° East 192 221 7,100  Level Memphis Center
04:27PM 33.0883 -88.2572 67° East 193 222 7,100  Level Memphis Center
04:28PM 33.1061 -88.1972 71° East 194 223 7,100  Level Memphis Center
04:29PM 33.1281 -88.1372 66° East 196 226 7,100  Level Memphis Center
04:30PM 33.1478 -88.0719 70° East 193 222 7,100  Level Memphis Center
04:36PM 33.2567 -87.7328 69° East 192 221 7,100  Level Atlanta Center
04:37PM 33.2706 -87.6886 69° East 183 211 7,100  Level Atlanta Center
04:38PM 33.2892 -87.6272 70° East 183 211 7,100  Level Atlanta Center
04:38PM 33.3006 -87.5931 68° East 194 223 7,100  Level Atlanta Center
04:39PM 33.3189 -87.5314 70° East 195 224 7,100  Level Atlanta Center
04:40PM 33.3372 -87.4750 69° East 192 221 7,100 -240 Level Atlanta Center
04:41PM 33.3558 -87.4111 71° East 197 227 6,700 -420 Descending Atlanta Center
04:43PM 33.3872 -87.3228 67° East 195 224 6,100 -300 Descending Atlanta Center
04:43PM 33.4031 -87.2811 66° East 199 229 6,100  Level Atlanta Center
04:44PM 33.4294 -87.2272 60° Northeast 188 216 6,100  Level Atlanta Center
04:45PM 33.4600 -87.1761 54° Northeast 186 214 6,200  Climbing Atlanta Center
04:46PM 33.4883 -87.1250 56° Northeast 186 214 6,100 -60 Descending Atlanta Center
04:47PM 33.5125 -87.0758 59° Northeast 184 212 6,100 -120 Level Atlanta Center
04:48PM 33.5411 -87.0247 56° Northeast 184 212 5,900 -300 Descending Atlanta Center
04:49PM 33.5714 -86.9733 55° Northeast 196 226 5,500 -420 Descending Atlanta Center
04:50PM 33.6058 -86.9269 48° Northeast 181 208 5,100 -420 Descending Atlanta Center
04:51PM 33.6383 -86.8858 46° Northeast 172 198 4,800 -660 Descending Atlanta Center
04:52PM 33.6417 -86.8211 86° East 211 243 3,900 -1,140 Descending Atlanta Center
04:53PM 33.6350 -86.7558 97° East 194 223 2,500 -1,200 Descending Atlanta Center
04:54PM 33.5975 -86.7497 172° South 118 136 1,600 -900 Descending Atlanta Center
04:56PM 33.5639 -86.7523 68° East  Level Estimated
05:03PM 33.5639 -86.7523 68° East  Level Estimated